Aérodrome :
LOGIN :

S'inscrire | Disclaimer

   EN    FR    IT 

 










Légende :    VFR   VFR Marginal   IFR   IFR Intensif   IFR Très Intensif
Visi : 
Plafond : 
>= 8 km
>= 3000ft
5 à 8 km
1000 à 3000 ft
1500m à 5 km
500 à 1000 ft
800 à 1500m
200 à 500 ft
< 800m
< 200 ft
Symboles :   Orages  Brouillard  Fortes neiges  Fortes précipitations  Vent > 20 kt
SIGMETs :   Divers  Orages  Givrage  Turbulence  Onde Orograph.  Cendres Volcan.






- Altitude de l'aérodrome : 1276 ft
- Code IATA : STR


EDDS - Stuttgart

DERNIER METAR :
  • 151350Z AUTO 16006KT 110V220 CAVOK 30/14 Q1011 NOSIG

METARs EXPIRÉS :
  • 151320Z AUTO VRB05KT CAVOK 30/15 Q1011 NOSIG
  • 151250Z AUTO VRB04KT CAVOK 30/16 Q1012 NOSIG
  • 151220Z AUTO 09005KT 040V140 CAVOK 29/16 Q1012 NOSIG
  • 151150Z AUTO 09005KT 050V180 CAVOK 29/15 Q1012 NOSIG
  • 151120Z AUTO VRB03KT CAVOK 29/15 Q1013 NOSIG
  • 151050Z AUTO 06003KT 020V130 CAVOK 28/16 Q1013
  • 151020Z AUTO 07003KT 030V150 CAVOK 27/15 Q1013 NOSIG
  • 150950Z AUTO 09002KT CAVOK 26/15 Q1013 NOSIG
  • 150920Z AUTO 07003KT 340V120 CAVOK 25/15 Q1013 NOSIG

TAF TAF EDDS
Valide du 15 à 12h jusqu'au 16 à 12h UTC


151100Z 1512/1612 09005KT CAVOK
PROB30
TEMPO 1515/1518 TSRA BKN030CB
BECMG 1518/1520 21005KT
PROB40
TEMPO 1520/1524 22015G30KT 3000 TSRA BKN020CB



MET'MAP, la Météo Aéronautique d'un coup d'oeil ! - Copyright ORBIFLY Décembre 2007 - Disclaimer

ORBIFLY MET'MAP TEAM :

Programmation & Développement : Alexandra Zaïnal
Sur une idée originale de : Baudouin d'Aumeries
Soutien technique & logistique : Manuel Goepfert
Assistance : Marc-Olivier Méhu




SOURCES & CREDITS :

   NOAA